Time;durP1;ratioP1;P1;durP2;ratioP2;P2;SDS_P1;SDS_P2;PMS_P1;PMS_P2;Temp;Humidity;BMP_temperature;BMP_pressure;BME280_temperature;BME280_humidity;BME280_pressure;Samples;Min_cycle;Max_cycle;Signal;HPM_P1;HPM_P2
2023/09/22 00:00:49;;;;;;;6.95;2.78;;;14.20;99.90;;;;;;5071036;28;20041;-58
2023/09/22 00:03:15;;;;;;;8.27;3.58;;;14.20;99.90;;;;;;5070992;28;20044;-58
2023/09/22 00:05:41;;;;;;;9.40;3.40;;;14.20;99.90;;;;;;5052844;28;20094;-59
2023/09/22 00:08:07;;;;;;;7.82;2.88;;;14.20;99.90;;;;;;5053030;28;20036;-59
2023/09/22 00:10:33;;;;;;;10.20;3.67;;;14.20;99.90;;;;;;5052331;28;20049;-59
2023/09/22 00:12:59;;;;;;;7.55;3.65;;;14.20;99.90;;;;;;5052627;28;20072;-59
2023/09/22 00:15:27;;;;;;;4.88;2.97;;;14.20;99.90;;;;;;5052986;28;20106;-58
2023/09/22 00:17:53;;;;;;;6.20;3.28;;;14.20;99.90;;;;;;5052166;28;20044;-60
2023/09/22 00:20:20;;;;;;;5.70;2.83;;;14.20;99.90;;;;;;5035888;28;20047;-59
2023/09/22 00:22:46;;;;;;;8.55;3.25;;;14.20;99.90;;;;;;5052894;28;20047;-59
2023/09/22 00:25:13;;;;;;;6.90;3.38;;;14.20;99.90;;;;;;5026649;28;20055;-59
2023/09/22 00:27:39;;;;;;;5.90;2.70;;;14.20;99.90;;;;;;4971495;28;20421;-59
2023/09/22 00:30:08;;;;;;;8.30;3.00;;;14.20;99.90;;;;;;4971302;28;20129;-58
2023/09/22 00:32:34;;;;;;;8.75;3.70;;;14.10;99.90;;;;;;4967446;28;20039;-59
2023/09/22 00:35:00;;;;;;;6.95;2.85;;;14.10;99.90;;;;;;4952095;28;20039;-58
2023/09/22 00:37:28;;;;;;;6.75;3.20;;;14.00;99.90;;;;;;4951901;28;20081;-59
2023/09/22 00:39:54;;;;;;;11.30;4.28;;;14.00;99.90;;;;;;4968734;28;20046;-58
2023/09/22 00:42:19;;;;;;;7.45;2.97;;;14.00;99.90;;;;;;4958914;28;20046;-58
2023/09/22 00:44:45;;;;;;;9.48;3.30;;;13.90;99.90;;;;;;4971291;28;20096;-58
2023/09/22 00:47:13;;;;;;;7.88;3.10;;;14.00;99.90;;;;;;4987842;28;20514;-59
2023/09/22 00:49:41;;;;;;;9.95;4.43;;;14.00;99.90;;;;;;4988749;28;20366;-59
2023/09/22 00:52:07;;;;;;;5.90;3.00;;;14.00;99.90;;;;;;4970910;28;20042;-59
2023/09/22 00:54:34;;;;;;;6.50;3.22;;;14.00;99.90;;;;;;4970127;28;20125;-59
2023/09/22 00:57:03;;;;;;;7.30;3.28;;;14.00;99.90;;;;;;4988313;28;20084;-59
2023/09/22 00:59:33;;;;;;;7.85;4.10;;;14.10;99.90;;;;;;4988360;28;20064;-59
2023/09/22 01:02:00;;;;;;;6.90;2.83;;;14.10;99.90;;;;;;4970987;28;20042;-58
2023/09/22 01:04:26;;;;;;;9.77;4.70;;;14.10;99.90;;;;;;4954648;28;20497;-58
2023/09/22 01:06:52;;;;;;;7.32;4.22;;;14.20;99.90;;;;;;4970312;28;20046;-58
2023/09/22 01:09:18;;;;;;;6.47;2.97;;;14.20;99.90;;;;;;4970610;28;20180;-58
2023/09/22 01:11:44;;;;;;;10.68;4.03;;;14.20;99.90;;;;;;4970013;28;20085;-58
2023/09/22 01:14:10;;;;;;;11.60;4.60;;;14.20;99.90;;;;;;4952673;28;20038;-58
2023/09/22 01:16:36;;;;;;;9.52;4.07;;;14.20;99.90;;;;;;4969760;28;20068;-58
2023/09/22 01:19:02;;;;;;;11.45;5.22;;;14.30;99.90;;;;;;4970086;28;20111;-59
2023/09/22 01:21:34;;;;;;;11.27;4.63;;;14.30;99.90;;;;;;4969628;28;20050;-58
2023/09/22 01:24:00;;;;;;;6.88;3.20;;;14.30;99.90;;;;;;4970062;28;20046;-59
2023/09/22 01:26:27;;;;;;;7.28;4.53;;;14.30;99.90;;;;;;4969785;28;20085;-58
2023/09/22 01:28:53;;;;;;;7.93;4.28;;;14.30;99.90;;;;;;4969568;28;20407;-58
2023/09/22 01:31:18;;;;;;;9.65;4.93;;;14.30;99.90;;;;;;4987485;28;20100;-58
2023/09/22 01:33:47;;;;;;;7.68;3.28;;;14.30;99.90;;;;;;4970133;28;20053;-58
2023/09/22 01:36:16;;;;;;;9.00;3.72;;;14.20;99.90;;;;;;4969441;28;20042;-58
2023/09/22 01:38:42;;;;;;;8.40;3.40;;;14.20;99.90;;;;;;4969841;28;20045;-58
2023/09/22 01:41:07;;;;;;;9.05;3.28;;;14.20;99.90;;;;;;4969837;28;20050;-58
2023/09/22 01:43:35;;;;;;;6.13;3.03;;;14.10;99.90;;;;;;4969201;28;20046;-58
2023/09/22 01:46:00;;;;;;;9.13;4.03;;;14.10;99.90;;;;;;4969780;28;20046;-58
2023/09/22 01:48:26;;;;;;;7.53;3.63;;;14.10;99.90;;;;;;4970007;28;20053;-58
2023/09/22 01:50:52;;;;;;;7.25;3.75;;;14.10;99.90;;;;;;4971292;28;20482;-58
2023/09/22 01:53:18;;;;;;;9.45;3.63;;;14.10;99.90;;;;;;4956896;28;20034;-58
2023/09/22 01:55:46;;;;;;;7.90;2.88;;;14.10;99.90;;;;;;4972369;28;20038;-58
2023/09/22 01:58:12;;;;;;;10.30;3.80;;;14.00;99.90;;;;;;4972905;28;20042;-58
2023/09/22 02:00:38;;;;;;;8.32;3.35;;;14.00;99.90;;;;;;4990429;28;20104;-58
2023/09/22 02:03:08;;;;;;;5.93;3.13;;;13.90;99.90;;;;;;4989599;28;20057;-58
2023/09/22 02:05:34;;;;;;;6.32;2.90;;;13.80;99.90;;;;;;4990440;28;20038;-58
2023/09/22 02:08:00;;;;;;;7.55;3.00;;;13.80;99.90;;;;;;4973065;28;20049;-58
2023/09/22 02:10:26;;;;;;;6.00;2.15;;;13.70;99.90;;;;;;4972528;28;20513;-58
2023/09/22 02:12:52;;;;;;;8.23;2.90;;;13.70;99.90;;;;;;4972972;28;20046;-58
2023/09/22 02:15:18;;;;;;;6.18;1.98;;;13.60;99.90;;;;;;4972950;28;20034;-58
2023/09/22 02:17:46;;;;;;;5.53;2.40;;;13.60;99.90;;;;;;4971272;28;20129;-63
2023/09/22 02:20:22;;;;;;;4.22;1.48;;;13.50;99.90;;;;;;4990090;28;20030;-63
2023/09/22 02:22:55;;;;;;;2.50;1.30;;;13.50;99.90;;;;;;4971924;28;20125;-63
2023/09/22 02:25:22;;;;;;;4.35;1.55;;;13.40;99.90;;;;;;4988838;28;20120;-63
2023/09/22 02:27:51;;;;;;;4.07;1.50;;;13.40;99.90;;;;;;4990341;28;20054;-63
2023/09/22 02:30:17;;;;;;;3.28;1.55;;;13.30;99.90;;;;;;4972757;28;20134;-63
2023/09/22 02:32:47;;;;;;;2.90;1.20;;;13.30;99.90;;;;;;4989522;28;20046;-63
2023/09/22 02:35:13;;;;;;;4.20;1.80;;;13.20;99.90;;;;;;4990103;28;20122;-63
2023/09/22 02:37:40;;;;;;;3.15;1.65;;;13.20;99.90;;;;;;4989298;28;20042;-63
2023/09/22 02:40:07;;;;;;;3.47;1.25;;;13.20;99.90;;;;;;4972652;28;20041;-63
2023/09/22 02:42:33;;;;;;;2.63;1.40;;;13.10;99.90;;;;;;4989819;28;20047;-63
2023/09/22 02:44:59;;;;;;;1.75;1.15;;;13.10;99.90;;;;;;4971736;28;20120;-63
2023/09/22 02:47:28;;;;;;;3.75;1.40;;;13.10;99.90;;;;;;4989805;28;20042;-63
2023/09/22 02:49:57;;;;;;;6.32;1.55;;;13.20;99.90;;;;;;4972377;28;20050;-63
2023/09/22 02:52:23;;;;;;;2.10;0.55;;;13.20;99.90;;;;;;4988991;28;20445;-63
2023/09/22 02:54:54;;;;;;;2.15;0.75;;;13.20;99.90;;;;;;4972206;28;20046;-63
2023/09/22 02:57:19;;;;;;;2.17;1.00;;;13.20;99.90;;;;;;4972113;28;20042;-63
2023/09/22 02:59:45;;;;;;;3.58;1.02;;;13.20;99.90;;;;;;4971455;28;20111;-63
2023/09/22 03:02:11;;;;;;;3.63;1.38;;;13.20;99.90;;;;;;4988504;28;20039;-63
2023/09/22 03:04:37;;;;;;;4.00;1.42;;;13.20;99.90;;;;;;4989453;28;20054;-63
2023/09/22 03:07:02;;;;;;;2.72;1.13;;;13.20;99.90;;;;;;4971606;28;20367;-63
2023/09/22 03:09:28;;;;;;;3.70;1.50;;;13.20;99.90;;;;;;4971967;28;20058;-63
2023/09/22 03:11:54;;;;;;;3.88;1.52;;;13.20;99.90;;;;;;4955866;28;20047;-63
2023/09/22 03:14:20;;;;;;;3.47;1.45;;;13.20;99.90;;;;;;4988910;28;20050;-63
2023/09/22 03:16:46;;;;;;;4.30;1.80;;;13.20;99.90;;;;;;4989243;28;20070;-63
2023/09/22 03:19:12;;;;;;;4.95;1.92;;;13.30;99.90;;;;;;4971170;28;20046;-63
2023/09/22 03:21:37;;;;;;;3.72;1.67;;;13.30;99.90;;;;;;4954965;28;20046;-64
2023/09/22 03:24:04;;;;;;;6.97;2.03;;;13.30;99.90;;;;;;4971864;28;20057;-64
2023/09/22 03:26:30;;;;;;;7.15;2.13;;;13.30;99.90;;;;;;4989173;28;20850;-64
2023/09/22 03:28:56;;;;;;;7.97;2.85;;;13.40;99.90;;;;;;4971160;28;20058;-64
2023/09/22 03:31:23;;;;;;;4.93;2.50;;;13.40;99.90;;;;;;4971407;28;20049;-64
2023/09/22 03:33:49;;;;;;;3.63;1.88;;;13.40;99.90;;;;;;4971237;28;20432;-64
2023/09/22 03:36:15;;;;;;;7.85;2.90;;;13.50;99.90;;;;;;4971666;28;20046;-64
2023/09/22 03:38:45;;;;;;;3.95;1.55;;;13.50;99.90;;;;;;4971635;28;20522;-63
2023/09/22 03:41:12;;;;;;;4.50;2.08;;;13.50;99.90;;;;;;4971133;28;20104;-64
2023/09/22 03:43:38;;;;;;;6.63;3.22;;;13.50;99.90;;;;;;4971534;28;20054;-64
2023/09/22 03:46:04;;;;;;;6.35;2.50;;;13.60;99.90;;;;;;4988731;28;20163;-64
2023/09/22 03:48:29;;;;;;;6.15;2.85;;;13.60;99.90;;;;;;4970972;28;20038;-63
2023/09/22 03:50:56;;;;;;;7.28;2.85;;;13.60;99.90;;;;;;4971415;28;20506;-64
2023/09/22 03:53:26;;;;;;;6.07;3.22;;;13.70;99.90;;;;;;4971152;28;20034;-64
2023/09/22 03:55:51;;;;;;;5.43;2.40;;;13.70;99.90;;;;;;4970913;28;20061;-63
2023/09/22 03:58:20;;;;;;;6.43;2.78;;;13.60;99.90;;;;;;4955287;28;20791;-63
2023/09/22 04:00:46;;;;;;;5.63;2.13;;;13.60;99.90;;;;;;4971173;28;20053;-63
2023/09/22 04:03:13;;;;;;;9.50;2.75;;;13.60;99.90;;;;;;4970864;28;20371;-63
2023/09/22 04:05:39;;;;;;;8.75;4.00;;;13.60;99.90;;;;;;4971161;28;20054;-63
2023/09/22 04:08:06;;;;;;;6.25;2.97;;;13.50;99.90;;;;;;4988771;28;20042;-63
2023/09/22 04:10:35;;;;;;;7.53;3.95;;;13.50;99.90;;;;;;4970761;28;20379;-63
2023/09/22 04:13:01;;;;;;;9.65;3.67;;;13.40;99.90;;;;;;4970721;28;20080;-63
2023/09/22 04:15:27;;;;;;;6.85;2.92;;;13.40;99.90;;;;;;4971115;28;20050;-63
2023/09/22 04:17:52;;;;;;;7.53;2.80;;;13.30;99.90;;;;;;4987803;28;20050;-64
2023/09/22 04:20:26;;;;;;;7.70;3.47;;;13.20;99.90;;;;;;4988425;28;20046;-64
2023/09/22 04:22:53;;;;;;;13.25;3.60;;;13.20;99.90;;;;;;4987105;28;20042;-63
2023/09/22 04:25:19;;;;;;;7.60;3.63;;;13.10;99.90;;;;;;4960485;28;20070;-63
2023/09/22 04:27:53;;;;;;;8.88;4.32;;;13.00;99.90;;;;;;4962649;28;20495;-64
2023/09/22 04:30:20;;;;;;;10.82;4.28;;;13.00;99.90;;;;;;5051698;28;20774;-64
2023/09/22 04:32:47;;;;;;;9.80;3.95;;;13.00;99.90;;;;;;5070179;28;20063;-64
2023/09/22 04:35:13;;;;;;;9.02;3.78;;;12.90;99.90;;;;;;5051969;28;20080;-64
2023/09/22 04:37:40;;;;;;;14.13;4.88;;;12.90;99.90;;;;;;5069474;28;20137;-65
2023/09/22 04:40:11;;;;;;;9.82;4.13;;;12.90;99.90;;;;;;5069891;28;20119;-64
2023/09/22 04:42:37;;;;;;;12.02;4.03;;;12.90;99.90;;;;;;5051681;28;20044;-63
2023/09/22 04:45:04;;;;;;;9.18;3.88;;;12.90;99.90;;;;;;5051467;28;20091;-63
2023/09/22 04:47:29;;;;;;;11.68;3.85;;;12.90;99.90;;;;;;5051958;28;20044;-64
2023/09/22 04:49:57;;;;;;;10.10;3.75;;;12.90;99.90;;;;;;5051879;28;20047;-64
2023/09/22 04:52:22;;;;;;;7.88;3.70;;;12.90;99.90;;;;;;5069078;28;20048;-64
2023/09/22 04:54:48;;;;;;;9.38;3.80;;;12.90;99.90;;;;;;5051940;28;20048;-64
2023/09/22 04:57:15;;;;;;;8.75;3.20;;;12.90;99.90;;;;;;5071578;28;20131;-63
2023/09/22 04:59:43;;;;;;;6.97;3.45;;;12.80;99.90;;;;;;5089124;28;20040;-64
2023/09/22 05:02:11;;;;;;;7.90;3.15;;;12.90;99.90;;;;;;5089807;28;20047;-63
2023/09/22 05:04:37;;;;;;;6.95;3.90;;;12.90;99.90;;;;;;5054347;28;20044;-64
2023/09/22 05:07:04;;;;;;;8.93;4.55;;;12.90;99.90;;;;;;5089808;28;20050;-64
2023/09/22 05:09:29;;;;;;;9.10;4.55;;;12.90;99.90;;;;;;5090045;28;20101;-63
2023/09/22 05:11:55;;;;;;;13.13;4.78;;;12.90;99.90;;;;;;5066341;28;20053;-64
2023/09/22 05:14:21;;;;;;;9.90;4.05;;;12.90;99.90;;;;;;5051658;28;20119;-64
2023/09/22 05:16:47;;;;;;;9.73;4.57;;;12.80;99.90;;;;;;5051724;28;20047;-64
2023/09/22 05:19:13;;;;;;;14.13;5.28;;;12.90;99.90;;;;;;5069405;28;20505;-63
2023/09/22 05:21:39;;;;;;;7.43;4.03;;;12.80;99.90;;;;;;5068469;28;20124;-65
2023/09/22 05:24:05;;;;;;;7.70;3.80;;;12.80;99.90;;;;;;5051703;28;20063;-64
2023/09/22 05:26:31;;;;;;;10.80;4.75;;;12.90;99.90;;;;;;5000410;28;20042;-64
2023/09/22 05:28:57;;;;;;;15.23;4.72;;;12.80;99.90;;;;;;4990930;28;20046;-64
2023/09/22 05:31:22;;;;;;;10.40;4.45;;;12.90;99.90;;;;;;4973503;28;20057;-64
2023/09/22 05:33:48;;;;;;;12.93;5.97;;;12.80;99.90;;;;;;4973442;28;20046;-64
2023/09/22 05:36:14;;;;;;;10.63;5.07;;;12.80;99.90;;;;;;4973513;28;20042;-64
2023/09/22 05:38:40;;;;;;;11.50;5.15;;;12.80;99.90;;;;;;4990761;28;20042;-64
2023/09/22 05:41:08;;;;;;;13.60;5.47;;;12.90;99.90;;;;;;4972778;28;20137;-64
2023/09/22 05:43:33;;;;;;;12.15;5.80;;;12.80;99.90;;;;;;4973396;28;20128;-64
2023/09/22 05:45:59;;;;;;;18.05;5.00;;;12.80;99.90;;;;;;4973224;28;20467;-65
2023/09/22 05:48:25;;;;;;;12.80;5.28;;;12.80;99.90;;;;;;4972059;28;20042;-65
2023/09/22 05:50:59;;;;;;;11.27;4.45;;;12.80;99.90;;;;;;4973244;28;20131;-66
2023/09/22 05:53:26;;;;;;;11.93;4.90;;;12.80;99.90;;;;;;4990257;28;20378;-65
2023/09/22 05:56:10;;;;;;;10.32;4.85;;;12.80;99.90;;;;;;4972708;28;20054;-59
2023/09/22 05:58:39;;;;;;;12.38;5.97;;;12.80;99.90;;;;;;4990381;28;20125;-58
2023/09/22 06:01:08;;;;;;;13.27;5.03;;;12.80;99.90;;;;;;4989905;28;20042;-59
2023/09/22 06:03:38;;;;;;;12.23;5.45;;;12.80;99.90;;;;;;4973082;28;20042;-59
2023/09/22 06:06:15;;;;;;;14.02;6.25;;;12.80;99.90;;;;;;4990198;28;20042;-59
2023/09/22 06:08:45;;;;;;;13.20;4.43;;;12.90;99.90;;;;;;4989719;28;20046;-60
2023/09/22 06:11:11;;;;;;;13.48;4.32;;;12.90;99.90;;;;;;4972923;28;20046;-59
2023/09/22 06:13:38;;;;;;;14.35;5.32;;;13.00;99.90;;;;;;4972846;28;20108;-59
2023/09/22 06:16:04;;;;;;;7.80;4.38;;;13.00;99.90;;;;;;4989266;28;20066;-59
2023/09/22 06:18:31;;;;;;;12.82;4.88;;;13.00;99.90;;;;;;4972690;28;20096;-59
2023/09/22 06:20:59;;;;;;;10.18;5.18;;;13.00;99.90;;;;;;4956716;28;20112;-59
2023/09/22 06:23:25;;;;;;;12.75;4.68;;;13.10;99.90;;;;;;4972358;28;20401;-59
2023/09/22 06:25:54;;;;;;;7.53;3.65;;;13.10;99.90;;;;;;4972229;28;20065;-59
2023/09/22 06:28:20;;;;;;;11.03;5.63;;;13.20;99.90;;;;;;4971757;28;20042;-58
2023/09/22 06:30:47;;;;;;;12.30;4.90;;;13.20;99.90;;;;;;4971403;28;20395;-59
2023/09/22 06:33:15;;;;;;;9.63;4.13;;;13.20;99.90;;;;;;4973114;28;20043;-58
2023/09/22 06:35:40;;;;;;;9.07;4.30;;;13.30;99.90;;;;;;4972416;28;20085;-59
2023/09/22 06:38:06;;;;;;;6.80;4.05;;;13.30;99.90;;;;;;4990665;28;20058;-59
2023/09/22 06:40:36;;;;;;;14.63;3.95;;;13.30;99.90;;;;;;4990314;28;20171;-59
2023/09/22 06:43:04;;;;;;;11.00;4.60;;;13.40;99.90;;;;;;4972595;28;20065;-59
2023/09/22 06:45:32;;;;;;;6.72;3.40;;;13.40;99.90;;;;;;4972976;28;20065;-58
2023/09/22 06:47:59;;;;;;;11.90;5.15;;;13.40;99.90;;;;;;4972893;28;20398;-59
2023/09/22 06:50:30;;;;;;;8.35;3.55;;;13.50;99.90;;;;;;4972113;28;20046;-59
2023/09/22 06:52:58;;;;;;;10.57;4.13;;;13.40;99.90;;;;;;4990087;28;20162;-58
2023/09/22 06:55:24;;;;;;;10.43;3.85;;;13.50;99.90;;;;;;4956921;28;20088;-58
2023/09/22 06:57:50;;;;;;;10.98;3.63;;;13.50;99.90;;;;;;4972155;28;20649;-58
2023/09/22 07:00:18;;;;;;;9.65;3.83;;;13.50;99.90;;;;;;4972682;28;20053;-63
2023/09/22 07:02:46;;;;;;;10.02;3.03;;;13.60;99.90;;;;;;4972669;28;20129;-64
2023/09/22 07:05:12;;;;;;;8.18;3.25;;;13.60;99.90;;;;;;5006294;28;20698;-63
2023/09/22 07:07:38;;;;;;;6.72;2.85;;;13.70;99.90;;;;;;5057753;28;20071;-62
2023/09/22 07:10:09;;;;;;;9.55;3.65;;;13.60;99.90;;;;;;5074377;28;20036;-62
2023/09/22 07:12:36;;;;;;;4.68;2.47;;;13.70;99.90;;;;;;5029321;28;20157;-63
2023/09/22 07:15:03;;;;;;;6.85;3.35;;;13.70;99.90;;;;;;4989914;28;20113;-63
2023/09/22 07:17:29;;;;;;;8.98;3.13;;;13.70;99.90;;;;;;4990823;28;20034;-63
2023/09/22 07:19:55;;;;;;;7.00;2.90;;;13.70;99.90;;;;;;4975117;28;20405;-63
2023/09/22 07:22:21;;;;;;;7.88;3.67;;;13.70;99.90;;;;;;5009453;28;20118;-64
2023/09/22 07:24:46;;;;;;;7.93;2.95;;;13.80;99.90;;;;;;4990977;28;21267;-65
2023/09/22 07:27:12;;;;;;;7.55;3.40;;;13.80;99.90;;;;;;4975987;28;20052;-63
2023/09/22 07:29:38;;;;;;;10.40;3.75;;;13.80;99.90;;;;;;4991742;28;20115;-63
2023/09/22 07:32:04;;;;;;;6.25;2.72;;;13.90;99.90;;;;;;4976350;28;20498;-63
2023/09/22 07:34:30;;;;;;;6.57;3.22;;;13.90;99.90;;;;;;4989606;28;20085;-63
2023/09/22 07:36:55;;;;;;;5.97;3.35;;;13.90;99.90;;;;;;4989678;28;20066;-63
2023/09/22 07:39:21;;;;;;;6.10;2.47;;;13.90;99.90;;;;;;4989003;28;20046;-63
2023/09/22 07:41:47;;;;;;;8.77;3.65;;;13.90;99.90;;;;;;4971899;28;20050;-64
2023/09/22 07:44:14;;;;;;;4.50;2.60;;;13.90;99.90;;;;;;4971878;28;20069;-64
2023/09/22 07:46:41;;;;;;;7.38;3.85;;;13.90;99.90;;;;;;4971543;28;20078;-64
2023/09/22 07:49:07;;;;;;;6.40;2.88;;;13.90;99.90;;;;;;4971223;28;20042;-64
2023/09/22 07:51:33;;;;;;;8.15;3.17;;;13.80;99.90;;;;;;4989572;28;20142;-63
2023/09/22 07:53:59;;;;;;;7.18;3.22;;;13.80;99.90;;;;;;4971125;28;20096;-63
2023/09/22 07:56:25;;;;;;;6.45;2.92;;;13.80;99.90;;;;;;4972117;28;20044;-63
2023/09/22 07:58:51;;;;;;;5.25;2.97;;;13.80;99.90;;;;;;4955970;28;20445;-63
2023/09/22 08:01:17;;;;;;;6.25;2.90;;;13.90;99.90;;;;;;4971164;28;20130;-63
2023/09/22 08:03:43;;;;;;;7.18;2.90;;;13.90;99.90;;;;;;4955823;28;20053;-63
2023/09/22 08:06:11;;;;;;;5.10;2.88;;;14.00;99.90;;;;;;4989289;28;20053;-62
2023/09/22 08:08:37;;;;;;;10.45;3.05;;;14.10;99.90;;;;;;4971472;28;20082;-62
2023/09/22 08:11:04;;;;;;;5.43;3.05;;;14.20;99.90;;;;;;4971561;28;20053;-62
2023/09/22 08:13:33;;;;;;;5.60;3.45;;;14.40;99.90;;;;;;4989012;28;20119;-62
2023/09/22 08:15:59;;;;;;;5.03;2.45;;;14.50;99.90;;;;;;4971859;28;20050;-63
2023/09/22 08:18:26;;;;;;;4.03;2.33;;;14.70;99.90;;;;;;4971470;28;20046;-62
2023/09/22 08:20:53;;;;;;;4.05;2.60;;;14.80;99.90;;;;;;4970638;28;20057;-62
2023/09/22 08:23:19;;;;;;;5.70;2.33;;;15.00;99.90;;;;;;4987486;28;20061;-62
2023/09/22 08:25:46;;;;;;;8.70;3.08;;;15.40;99.90;;;;;;4971090;28;20066;-64
2023/09/22 08:28:15;;;;;;;5.05;2.88;;;15.80;99.90;;;;;;4954973;28;20042;-63
2023/09/22 08:30:41;;;;;;;4.03;1.98;;;16.00;99.90;;;;;;4955335;28;20160;-62
2023/09/22 08:33:08;;;;;;;3.42;2.50;;;16.00;99.90;;;;;;4971215;28;20121;-63
2023/09/22 08:35:34;;;;;;;3.95;1.95;;;15.80;99.90;;;;;;4987435;28;20034;-62
2023/09/22 08:38:02;;;;;;;5.10;1.95;;;15.60;99.90;;;;;;4971406;28;20049;-62
2023/09/22 08:40:28;;;;;;;4.93;1.88;;;15.40;99.90;;;;;;4971127;28;20137;-62
2023/09/22 08:42:55;;;;;;;4.78;2.50;;;15.20;99.90;;;;;;4969078;28;20485;-62
2023/09/22 08:45:22;;;;;;;3.78;1.50;;;15.00;99.90;;;;;;4969831;28;20053;-63
2023/09/22 08:47:49;;;;;;;7.32;1.80;;;15.00;99.90;;;;;;4969826;28;20131;-62
2023/09/22 08:50:19;;;;;;;4.28;1.90;;;14.90;99.90;;;;;;4986320;28;20651;-62
2023/09/22 08:52:49;;;;;;;4.00;1.85;;;15.00;99.90;;;;;;4968775;28;20038;-63
2023/09/22 08:55:15;;;;;;;9.80;2.17;;;15.00;99.90;;;;;;4969565;28;20039;-63
2023/09/22 08:57:45;;;;;;;2.22;1.08;;;15.20;99.90;;;;;;4968578;28;20073;-62
2023/09/22 09:00:23;;;;;;;1.58;1.05;;;15.90;99.90;;;;;;4968050;28;20050;-63
2023/09/22 09:02:54;;;;;;;2.33;1.35;;;16.40;99.90;;;;;;4986464;28;20070;-63
2023/09/22 09:05:31;;;;;;;5.82;1.17;;;16.90;99.90;;;;;;4986613;28;20371;-62
2023/09/22 09:08:18;;;;;;;1.70;1.10;;;17.00;99.90;;;;;;4969453;28;20043;-62
2023/09/22 09:10:47;;;;;;;1.85;1.10;;;16.80;99.90;;;;;;4968471;28;20574;-62
2023/09/22 09:13:17;;;;;;;1.33;0.82;;;16.40;99.90;;;;;;4969155;28;20050;-61
2023/09/22 09:15:45;;;;;;;;;;;16.00;99.90;;;;;;4969698;28;20046;-62
2023/09/22 09:18:12;;;;;;;3.10;0.80;;;15.70;99.90;;;;;;4968343;28;19921;-62
2023/09/22 09:20:40;;;;;;;3.53;0.70;;;15.60;99.90;;;;;;4968971;28;20081;-64
2023/09/22 09:23:18;;;;;;;1.60;0.70;;;15.50;99.90;;;;;;4953116;28;20517;-62
2023/09/22 09:25:46;;;;;;;2.88;1.15;;;15.50;99.90;;;;;;4952398;28;20066;-63
2023/09/22 09:28:13;;;;;;;2.10;0.85;;;15.50;99.90;;;;;;4969254;28;20050;-62
2023/09/22 09:30:51;;;;;;;1.52;0.70;;;15.40;99.90;;;;;;4952412;28;20050;-62
2023/09/22 09:33:19;;;;;;;1.52;0.73;;;15.40;99.90;;;;;;4986349;28;20047;-62
2023/09/22 09:35:45;;;;;;;1.13;0.77;;;15.30;99.90;;;;;;4968789;28;20398;-62
2023/09/22 09:38:12;;;;;;;0.95;0.52;;;15.30;99.90;;;;;;4953795;28;20054;-62
2023/09/22 09:40:38;;;;;;;1.15;0.70;;;15.20;99.90;;;;;;4999118;28;20371;-62
2023/09/22 09:43:07;;;;;;;1.70;0.80;;;15.20;99.90;;;;;;5004553;28;20050;-62
2023/09/22 09:45:36;;;;;;;1.25;0.75;;;15.20;99.90;;;;;;5037650;28;20061;-62
2023/09/22 09:48:05;;;;;;;1.27;0.90;;;15.20;99.90;;;;;;5004231;28;20034;-63
2023/09/22 09:50:34;;;;;;;1.85;1.23;;;15.20;99.90;;;;;;5061293;28;20129;-64
2023/09/22 09:53:06;;;;;;;1.13;0.70;;;15.20;99.90;;;;;;4998386;28;20073;-62
2023/09/22 09:55:35;;;;;;;3.95;1.23;;;15.10;99.90;;;;;;5018689;28;20559;-62
2023/09/22 09:58:02;;;;;;;3.67;0.87;;;15.20;99.90;;;;;;5037078;28;20031;-62
2023/09/22 10:00:28;;;;;;;0.90;0.80;;;15.20;99.90;;;;;;5014130;28;20872;-62
2023/09/22 10:02:58;;;;;;;1.55;0.80;;;15.20;99.90;;;;;;5002327;28;20039;-62
2023/09/22 10:05:24;;;;;;;1.33;0.80;;;15.30;99.90;;;;;;5039715;28;20036;-64
2023/09/22 10:07:51;;;;;;;1.38;0.90;;;15.30;99.90;;;;;;5037155;28;20049;-63
2023/09/22 10:10:20;;;;;;;0.80;0.68;;;15.40;99.90;;;;;;5006759;28;20043;-61
2023/09/22 10:12:47;;;;;;;0.68;0.50;;;15.50;99.90;;;;;;4973046;28;20038;-63
2023/09/22 10:15:36;;;;;;;0.90;0.65;;;15.60;99.90;;;;;;5009970;28;20038;-62
2023/09/22 10:18:05;;;;;;;2.75;0.65;;;15.60;99.90;;;;;;4992007;28;20057;-63
2023/09/22 10:20:51;;;;;;;1.38;0.55;;;16.00;99.90;;;;;;4980676;28;20463;-62
2023/09/22 10:23:20;;;;;;;0.73;0.55;;;16.50;99.90;;;;;;4972244;28;20057;-62
2023/09/22 10:26:04;;;;;;;0.90;0.50;;;16.80;99.90;;;;;;4957499;28;20063;-64
2023/09/22 10:28:30;;;;;;;1.25;0.73;;;17.00;99.90;;;;;;5053392;28;20045;-62
2023/09/22 10:30:58;;;;;;;0.88;0.60;;;16.90;99.90;;;;;;5071780;28;20048;-62
2023/09/22 10:33:27;;;;;;;0.68;0.50;;;17.20;99.90;;;;;;5054002;28;20044;-64
2023/09/22 10:35:53;;;;;;;4.20;0.82;;;17.30;99.90;;;;;;5071474;28;20041;-62
2023/09/22 10:38:22;;;;;;;1.10;0.75;;;17.20;99.90;;;;;;5053818;28;20868;-62
2023/09/22 10:41:06;;;;;;;1.15;0.75;;;16.90;99.90;;;;;;5052392;28;20484;-62
2023/09/22 10:43:33;;;;;;;1.38;0.70;;;16.70;99.90;;;;;;5071658;28;20114;-62
2023/09/22 10:45:59;;;;;;;1.58;1.00;;;16.90;99.90;;;;;;5054115;28;20045;-64
2023/09/22 10:48:35;;;;;;;3.55;0.70;;;17.70;99.90;;;;;;5053477;28;20123;-63
2023/09/22 10:51:02;;;;;;;1.55;0.90;;;18.40;99.90;;;;;;5072115;28;20154;-62
2023/09/22 10:53:32;;;;;;;1.30;0.52;;;18.60;99.90;;;;;;5054187;28;20028;-63
2023/09/22 10:55:58;;;;;;;1.50;0.80;;;18.40;99.90;;;;;;5037275;28;20106;-62
2023/09/22 10:58:26;;;;;;;0.75;0.60;;;18.20;99.90;;;;;;5037357;28;20074;-62
2023/09/22 11:01:07;;;;;;;1.00;0.60;;;18.40;99.90;;;;;;5053485;28;20492;-63
2023/09/22 11:03:33;;;;;;;0.80;0.52;;;18.50;99.90;;;;;;5070715;28;20153;-62
2023/09/22 11:06:03;;;;;;;1.02;0.57;;;18.50;99.90;;;;;;5053440;28;20414;-62
2023/09/22 11:08:29;;;;;;;3.03;0.70;;;19.00;99.90;;;;;;5071331;28;20283;-63
2023/09/22 11:10:56;;;;;;;1.15;0.60;;;19.80;99.90;;;;;;5052525;28;20059;-62
2023/09/22 11:13:22;;;;;;;1.20;0.82;;;20.40;99.90;;;;;;5053513;28;20041;-62
2023/09/22 11:16:03;;;;;;;0.95;0.70;;;20.50;99.90;;;;;;5070628;28;20478;-63
2023/09/22 11:18:33;;;;;;;2.08;0.73;;;20.20;99.90;;;;;;5052930;28;20045;-63
2023/09/22 11:21:08;;;;;;;0.63;0.50;;;19.90;99.90;;;;;;5036443;28;20107;-63
2023/09/22 11:23:38;;;;;;;1.55;0.75;;;19.60;99.90;;;;;;5051673;28;20088;-62
2023/09/22 11:26:10;;;;;;;0.88;0.60;;;19.30;99.90;;;;;;5015616;28;20510;-63
2023/09/22 11:28:43;;;;;;;1.02;0.60;;;19.00;99.90;;;;;;4955200;28;20088;-63
2023/09/22 11:31:17;;;;;;;1.30;0.65;;;18.80;99.90;;;;;;4970576;28;20042;-63
2023/09/22 11:33:44;;;;;;;0.85;0.47;;;18.50;99.90;;;;;;4971240;28;20046;-62
2023/09/22 11:36:11;;;;;;;1.10;0.50;;;18.30;99.90;;;;;;4988641;28;20039;-63
2023/09/22 11:38:43;;;;;;;1.63;0.55;;;18.20;99.90;;;;;;4970434;28;20103;-62
2023/09/22 11:41:17;;;;;;;1.10;0.70;;;18.60;99.90;;;;;;4989523;28;20147;-63
2023/09/22 11:43:51;;;;;;;1.15;1.00;;;19.10;99.90;;;;;;4976920;28;20494;-63
2023/09/22 11:46:26;;;;;;;1.23;0.73;;;19.50;99.90;;;;;;4982103;28;20049;-62
2023/09/22 11:49:02;;;;;;;0.82;0.52;;;20.00;99.90;;;;;;4971935;28;20050;-63
2023/09/22 11:51:44;;;;;;;0.55;0.40;;;20.60;99.90;;;;;;4974467;28;20042;-63
2023/09/22 11:54:12;;;;;;;0.80;0.50;;;21.30;99.90;;;;;;4977758;28;20371;-63
2023/09/22 11:56:38;;;;;;;0.60;0.38;;;21.80;99.90;;;;;;4971917;28;20042;-63
2023/09/22 11:59:08;;;;;;;1.27;0.73;;;21.70;99.90;;;;;;4955107;28;20050;-63
2023/09/22 12:01:34;;;;;;;0.52;0.45;;;21.40;99.90;;;;;;4971874;28;20085;-62
2023/09/22 12:04:00;;;;;;;1.33;0.65;;;21.00;99.90;;;;;;4971569;28;20054;-63
2023/09/22 12:06:26;;;;;;;0.63;0.50;;;20.60;99.90;;;;;;4971271;28;20046;-62
2023/09/22 12:08:52;;;;;;;1.20;0.65;;;20.20;99.90;;;;;;4971534;28;20046;-62
2023/09/22 12:11:18;;;;;;;1.33;0.77;;;20.10;99.90;;;;;;4989290;28;20114;-63
2023/09/22 12:13:46;;;;;;;1.02;0.55;;;20.10;99.90;;;;;;4971259;28;20232;-62
2023/09/22 12:16:13;;;;;;;0.70;0.38;;;19.80;99.90;;;;;;4971651;28;20050;-64
2023/09/22 12:18:38;;;;;;;0.80;0.60;;;19.50;99.90;;;;;;4988286;28;20477;-62
2023/09/22 12:21:04;;;;;;;0.57;0.43;;;19.10;99.90;;;;;;4971577;28;20121;-62
2023/09/22 12:23:32;;;;;;;0.75;0.30;;;19.00;99.90;;;;;;4988927;28;20074;-62
2023/09/22 12:25:58;;;;;;;0.52;0.35;;;19.00;99.90;;;;;;4955360;28;20056;-64
2023/09/22 12:28:24;;;;;;;0.60;0.40;;;19.10;99.90;;;;;;4948877;29;20054;-63
2023/09/22 12:30:52;;;;;;;0.45;0.40;;;19.60;99.90;;;;;;5051330;28;20091;-62
2023/09/22 12:33:18;;;;;;;0.30;0.30;;;20.00;99.90;;;;;;5052245;28;20542;-63
2023/09/22 12:35:44;;;;;;;0.65;0.50;;;20.20;99.90;;;;;;5036174;28;20443;-62
2023/09/22 12:38:10;;;;;;;0.88;0.60;;;20.20;99.90;;;;;;5036532;28;20072;-63
2023/09/22 12:40:36;;;;;;;0.80;0.40;;;20.00;99.90;;;;;;5052103;28;20712;-62
2023/09/22 12:43:02;;;;;;;1.00;0.47;;;19.60;99.90;;;;;;5070454;28;20036;-63
2023/09/22 12:45:31;;;;;;;0.40;0.20;;;19.30;99.90;;;;;;5052047;28;20048;-62
2023/09/22 12:47:57;;;;;;;0.77;0.30;;;19.30;99.90;;;;;;5069359;28;20037;-62